Time;durP1;ratioP1;P1;durP2;ratioP2;P2;SDS_P1;SDS_P2;PMS_P1;PMS_P2;Temp;Humidity;BMP_temperature;BMP_pressure;BME280_temperature;BME280_humidity;BME280_pressure;Samples;Min_cycle;Max_cycle;Signal;HPM_P1;HPM_P2
2023/08/17 00:00:13;;;;;;;7.82;6.97;;;18.80;99.90;;;;;;4995574;28;20029;-73
2023/08/17 00:02:42;;;;;;;9.48;7.13;;;18.80;99.90;;;;;;4996774;28;20081;-73
2023/08/17 00:05:08;;;;;;;7.38;6.45;;;18.80;99.90;;;;;;4996684;28;20026;-73
2023/08/17 00:07:35;;;;;;;8.90;6.63;;;18.80;99.90;;;;;;4996659;28;20026;-73
2023/08/17 00:10:01;;;;;;;7.80;7.00;;;18.70;99.90;;;;;;4995404;28;20022;-73
2023/08/17 00:12:27;;;;;;;9.27;7.20;;;18.50;99.90;;;;;;4996481;28;20484;-73
2023/08/17 00:14:53;;;;;;;8.32;7.18;;;18.40;99.90;;;;;;4996479;28;20102;-73
2023/08/17 00:17:19;;;;;;;10.48;7.30;;;18.20;99.90;;;;;;4996446;28;20029;-73
2023/08/17 00:19:45;;;;;;;8.73;7.18;;;18.20;99.90;;;;;;4996273;28;20031;-73
2023/08/17 00:22:11;;;;;;;10.25;7.30;;;18.10;99.90;;;;;;4996415;28;20033;-73
2023/08/17 00:24:37;;;;;;;9.32;7.65;;;17.90;99.90;;;;;;4996375;28;20038;-73
2023/08/17 00:27:03;;;;;;;8.65;6.80;;;17.80;99.90;;;;;;4996331;28;20034;-73
2023/08/17 00:29:29;;;;;;;8.00;6.82;;;17.80;99.90;;;;;;4996420;28;20030;-73
2023/08/17 00:31:55;;;;;;;8.30;7.38;;;17.80;99.90;;;;;;4995074;28;20163;-73
2023/08/17 00:34:21;;;;;;;7.97;7.18;;;17.90;99.90;;;;;;4996184;28;20058;-73
2023/08/17 00:36:47;;;;;;;9.60;7.20;;;17.90;99.90;;;;;;4996133;28;20031;-73
2023/08/17 00:39:13;;;;;;;9.65;7.03;;;17.90;99.90;;;;;;4995968;28;20077;-73
2023/08/17 00:41:38;;;;;;;11.00;6.80;;;17.90;99.90;;;;;;4995563;28;20053;-73
2023/08/17 00:44:04;;;;;;;7.93;6.38;;;17.90;99.90;;;;;;4996034;28;20038;-73
2023/08/17 00:46:30;;;;;;;8.02;6.75;;;18.00;99.90;;;;;;4994708;28;20400;-73
2023/08/17 00:48:58;;;;;;;9.07;7.18;;;17.90;99.90;;;;;;4994594;28;20034;-73
2023/08/17 00:51:24;;;;;;;7.85;7.05;;;18.00;99.90;;;;;;4995846;28;20492;-73
2023/08/17 00:53:51;;;;;;;8.85;7.00;;;17.90;99.90;;;;;;4995823;28;20459;-73
2023/08/17 00:56:17;;;;;;;7.90;6.82;;;17.80;99.90;;;;;;4995805;28;20023;-73
2023/08/17 00:58:43;;;;;;;8.45;6.95;;;17.60;99.90;;;;;;4995674;28;20435;-73
2023/08/17 01:01:09;;;;;;;8.32;7.43;;;17.50;99.90;;;;;;4995723;28;20105;-73
2023/08/17 01:03:35;;;;;;;9.23;7.55;;;17.50;99.90;;;;;;4995635;28;20129;-73
2023/08/17 01:06:02;;;;;;;9.20;7.68;;;17.40;99.90;;;;;;5021631;28;20147;-73
2023/08/17 01:08:29;;;;;;;11.23;8.60;;;17.40;99.90;;;;;;5014950;28;20443;-73
2023/08/17 01:11:13;;;;;;;9.90;8.35;;;17.40;99.90;;;;;;5015192;28;20022;-73
2023/08/17 01:13:49;;;;;;;9.82;8.32;;;17.30;99.90;;;;;;5014984;28;20036;-73
2023/08/17 01:16:25;;;;;;;8.27;7.35;;;17.20;99.90;;;;;;5015543;28;20029;-73
2023/08/17 01:18:52;;;;;;;9.05;7.45;;;17.30;99.90;;;;;;5014674;28;20033;-73
2023/08/17 01:21:23;;;;;;;10.18;8.00;;;17.30;99.90;;;;;;5014336;28;20026;-74
2023/08/17 01:23:49;;;;;;;9.18;7.97;;;17.20;99.90;;;;;;5020460;28;20018;-73
2023/08/17 01:26:15;;;;;;;12.27;8.35;;;17.20;99.90;;;;;;5014668;28;20041;-73
2023/08/17 01:28:46;;;;;;;8.85;7.47;;;17.20;99.90;;;;;;5016323;28;20173;-73
2023/08/17 01:31:19;;;;;;;9.15;8.00;;;17.10;99.90;;;;;;5014607;28;20018;-73
2023/08/17 01:33:52;;;;;;;8.35;7.05;;;17.10;99.90;;;;;;5014535;28;20383;-73
2023/08/17 01:36:32;;;;;;;9.50;7.38;;;17.00;99.90;;;;;;5014604;28;20030;-73
2023/08/17 01:39:00;;;;;;;9.63;8.07;;;17.10;99.90;;;;;;5014379;28;20446;-73
2023/08/17 01:41:26;;;;;;;10.02;6.95;;;17.10;99.90;;;;;;5013280;28;20117;-73
2023/08/17 01:43:53;;;;;;;9.18;7.47;;;17.20;99.90;;;;;;5014531;28;20033;-73
2023/08/17 01:46:19;;;;;;;9.57;7.10;;;17.20;99.90;;;;;;5014454;28;20072;-73
2023/08/17 01:48:46;;;;;;;9.73;7.78;;;17.30;99.90;;;;;;5014403;28;20030;-73
2023/08/17 01:51:20;;;;;;;8.15;6.63;;;17.40;99.90;;;;;;5015183;28;20099;-73
2023/08/17 01:53:46;;;;;;;7.47;6.53;;;17.30;99.90;;;;;;5013745;28;20052;-73
2023/08/17 01:56:12;;;;;;;8.60;6.72;;;17.40;99.90;;;;;;5014354;28;20022;-72
2023/08/17 01:58:38;;;;;;;9.25;7.22;;;17.40;99.90;;;;;;5012921;28;20374;-73
2023/08/17 02:01:03;;;;;;;8.25;7.05;;;17.40;99.90;;;;;;5013057;28;20026;-73
2023/08/17 02:03:29;;;;;;;6.70;5.93;;;17.40;99.90;;;;;;5014324;28;20072;-73
2023/08/17 02:05:58;;;;;;;16.30;7.75;;;17.30;99.90;;;;;;5014110;28;20037;-72
2023/08/17 02:08:24;;;;;;;9.35;7.35;;;17.20;99.90;;;;;;5014602;28;20505;-73
2023/08/17 02:10:49;;;;;;;9.13;7.75;;;17.10;99.90;;;;;;5013977;28;20038;-73
2023/08/17 02:13:16;;;;;;;11.23;8.13;;;17.00;99.90;;;;;;5014137;28;20551;-72
2023/08/17 02:15:42;;;;;;;9.43;7.22;;;16.90;99.90;;;;;;5014173;28;20025;-73
2023/08/17 02:18:08;;;;;;;9.30;7.70;;;16.80;99.90;;;;;;5014179;28;20033;-73
2023/08/17 02:20:34;;;;;;;9.43;7.13;;;16.60;99.90;;;;;;5013866;28;20061;-73
2023/08/17 02:23:00;;;;;;;9.18;7.68;;;16.60;99.90;;;;;;5013756;28;20057;-73
2023/08/17 02:25:26;;;;;;;10.38;7.97;;;16.60;99.90;;;;;;5012489;28;20488;-73
2023/08/17 02:27:52;;;;;;;9.30;7.90;;;16.60;99.90;;;;;;5013812;28;20030;-73
2023/08/17 02:30:18;;;;;;;9.68;7.30;;;16.60;99.90;;;;;;5013632;28;20564;-73
2023/08/17 02:32:43;;;;;;;9.32;7.75;;;16.70;99.90;;;;;;5013631;28;20439;-73
2023/08/17 02:35:10;;;;;;;8.95;7.57;;;16.70;99.90;;;;;;5013982;28;20028;-73
2023/08/17 02:37:35;;;;;;;9.48;7.60;;;16.80;99.90;;;;;;5013894;28;20044;-73
2023/08/17 02:40:02;;;;;;;9.68;7.85;;;16.70;99.90;;;;;;5013522;28;20552;-73
2023/08/17 02:42:28;;;;;;;8.80;7.07;;;16.80;99.90;;;;;;5013538;28;20033;-73
2023/08/17 02:44:54;;;;;;;8.20;6.55;;;16.70;99.90;;;;;;5012283;28;20034;-73
2023/08/17 02:47:19;;;;;;;8.13;7.13;;;16.70;99.90;;;;;;5013608;28;20066;-73
2023/08/17 02:49:45;;;;;;;8.23;6.65;;;16.70;99.90;;;;;;5012546;28;20488;-73
2023/08/17 02:52:11;;;;;;;7.38;6.43;;;16.70;99.90;;;;;;5013445;28;20496;-73
2023/08/17 02:54:36;;;;;;;8.10;6.28;;;16.70;99.90;;;;;;5013486;28;20034;-73
2023/08/17 02:57:02;;;;;;;7.93;6.60;;;16.70;99.90;;;;;;5012292;28;20030;-73
2023/08/17 02:59:28;;;;;;;6.93;6.22;;;16.60;99.90;;;;;;5013363;28;20026;-73
2023/08/17 03:01:53;;;;;;;8.40;7.32;;;16.50;99.90;;;;;;5013705;28;20030;-73
2023/08/17 03:04:19;;;;;;;9.55;6.75;;;16.40;99.90;;;;;;5016257;28;20062;-73
2023/08/17 03:06:45;;;;;;;8.88;7.18;;;16.30;99.90;;;;;;5017576;28;20058;-73
2023/08/17 03:09:11;;;;;;;9.48;7.10;;;16.40;99.90;;;;;;5017262;28;20041;-73
2023/08/17 03:11:36;;;;;;;8.68;6.82;;;16.40;99.90;;;;;;5017288;28;20092;-73
2023/08/17 03:14:02;;;;;;;8.13;6.97;;;16.40;99.90;;;;;;5009225;28;20041;-73
2023/08/17 03:16:29;;;;;;;8.13;6.68;;;16.50;99.90;;;;;;4997685;28;20053;-73
2023/08/17 03:18:56;;;;;;;7.38;6.68;;;16.50;99.90;;;;;;4997437;28;20031;-73
2023/08/17 03:21:22;;;;;;;7.47;6.25;;;16.50;99.90;;;;;;4997515;28;20031;-72
2023/08/17 03:23:48;;;;;;;10.38;6.82;;;16.50;99.90;;;;;;4996207;28;20058;-73
2023/08/17 03:26:14;;;;;;;9.38;6.35;;;16.50;99.90;;;;;;4996317;28;20030;-73
2023/08/17 03:28:40;;;;;;;7.38;6.50;;;16.50;99.90;;;;;;4997394;28;20042;-73
2023/08/17 03:31:07;;;;;;;9.57;6.82;;;16.40;99.90;;;;;;4997418;28;20026;-73
2023/08/17 03:33:32;;;;;;;9.98;7.35;;;16.30;99.90;;;;;;4997234;28;20026;-73
2023/08/17 03:35:58;;;;;;;8.82;7.28;;;16.10;99.90;;;;;;4997331;28;20033;-73
2023/08/17 03:38:24;;;;;;;9.07;7.07;;;16.00;99.90;;;;;;4997482;28;20064;-73
2023/08/17 03:40:49;;;;;;;9.00;7.80;;;15.90;99.90;;;;;;4996293;28;20064;-73
2023/08/17 03:43:15;;;;;;;9.20;7.32;;;15.80;99.90;;;;;;5017045;28;20140;-73
2023/08/17 03:45:42;;;;;;;9.80;7.43;;;15.70;99.90;;;;;;5016656;28;20030;-73
2023/08/17 03:48:08;;;;;;;8.88;7.22;;;15.60;99.90;;;;;;5017204;28;20384;-73
2023/08/17 03:50:34;;;;;;;9.63;7.35;;;15.60;99.90;;;;;;5016644;28;20084;-73
2023/08/17 03:53:00;;;;;;;8.38;7.20;;;15.60;99.90;;;;;;5016862;28;20066;-73
2023/08/17 03:55:26;;;;;;;11.85;7.68;;;15.70;99.90;;;;;;5016772;28;20022;-73
2023/08/17 03:57:51;;;;;;;7.85;6.13;;;15.70;99.90;;;;;;5016458;28;20105;-73
2023/08/17 04:00:17;;;;;;;8.52;7.45;;;15.80;99.90;;;;;;5016439;28;20153;-73
2023/08/17 04:02:43;;;;;;;9.77;7.20;;;15.90;99.90;;;;;;5016444;28;20022;-73
2023/08/17 04:05:09;;;;;;;9.50;6.72;;;15.90;99.90;;;;;;5016422;28;20071;-73
2023/08/17 04:07:35;;;;;;;9.93;7.32;;;15.90;99.90;;;;;;5016273;28;20033;-73
2023/08/17 04:10:00;;;;;;;8.43;7.20;;;15.80;99.90;;;;;;5016234;28;20117;-73
2023/08/17 04:12:26;;;;;;;8.25;6.85;;;15.70;99.90;;;;;;5016112;28;20121;-73
2023/08/17 04:14:52;;;;;;;8.23;6.97;;;15.60;99.90;;;;;;5014074;28;20214;-73
2023/08/17 04:17:17;;;;;;;8.68;7.57;;;15.60;99.90;;;;;;5016318;28;20022;-73
2023/08/17 04:19:43;;;;;;;9.70;7.35;;;15.60;99.90;;;;;;5014798;28;20034;-73
2023/08/17 04:22:09;;;;;;;9.70;7.00;;;15.60;99.90;;;;;;5016336;28;20030;-73
2023/08/17 04:24:35;;;;;;;9.60;7.05;;;15.70;99.90;;;;;;5016018;28;20038;-73
2023/08/17 04:27:01;;;;;;;10.82;7.03;;;15.70;99.90;;;;;;4998364;28;20030;-73
2023/08/17 04:29:26;;;;;;;9.43;7.40;;;15.80;99.90;;;;;;4996675;28;20037;-73
2023/08/17 04:31:52;;;;;;;8.27;6.80;;;15.80;99.90;;;;;;4994738;28;20038;-74
2023/08/17 04:34:18;;;;;;;8.93;7.00;;;15.80;99.90;;;;;;4996145;28;20477;-74
2023/08/17 04:36:44;;;;;;;8.98;7.18;;;15.80;99.90;;;;;;4996148;28;20030;-74
2023/08/17 04:39:09;;;;;;;10.85;7.40;;;15.70;99.90;;;;;;4995233;28;20440;-74
2023/08/17 04:41:35;;;;;;;7.93;6.88;;;15.80;99.90;;;;;;4996258;28;20436;-73
2023/08/17 04:44:01;;;;;;;9.25;7.07;;;15.80;99.90;;;;;;4996408;28;20031;-74
2023/08/17 04:46:26;;;;;;;9.73;6.93;;;15.80;99.90;;;;;;4995135;28;20065;-74
2023/08/17 04:48:52;;;;;;;7.95;6.85;;;15.70;99.90;;;;;;4996474;28;20489;-73
2023/08/17 04:51:18;;;;;;;9.38;6.80;;;15.70;99.90;;;;;;4995912;28;20509;-74
2023/08/17 04:53:43;;;;;;;7.45;6.22;;;15.70;99.90;;;;;;4996404;28;20034;-74
2023/08/17 04:56:09;;;;;;;7.55;6.60;;;15.70;99.90;;;;;;4996331;28;20444;-74
2023/08/17 04:58:35;;;;;;;7.63;6.63;;;15.80;99.90;;;;;;4995788;28;20027;-74
2023/08/17 05:01:00;;;;;;;7.53;6.30;;;15.80;99.90;;;;;;4996146;28;20034;-73
2023/08/17 05:03:26;;;;;;;7.78;6.57;;;15.80;99.90;;;;;;4996103;28;20377;-73
2023/08/17 05:05:53;;;;;;;8.43;6.90;;;15.80;99.90;;;;;;5028031;28;20052;-73
2023/08/17 05:08:19;;;;;;;12.23;6.43;;;15.80;99.90;;;;;;5024166;28;20026;-73
2023/08/17 05:10:44;;;;;;;8.40;6.88;;;15.80;99.90;;;;;;5018506;28;20026;-73
2023/08/17 05:13:10;;;;;;;8.32;7.03;;;15.90;99.90;;;;;;5019456;28;20025;-73
2023/08/17 05:15:36;;;;;;;8.02;6.53;;;15.90;99.90;;;;;;5016742;28;20113;-73
2023/08/17 05:18:01;;;;;;;7.63;6.65;;;15.90;99.90;;;;;;5015544;28;20392;-74
2023/08/17 05:20:27;;;;;;;8.43;6.75;;;16.00;99.90;;;;;;5018834;28;20399;-73
2023/08/17 05:22:53;;;;;;;12.13;6.78;;;16.00;99.90;;;;;;5014735;28;20164;-73
2023/08/17 05:25:18;;;;;;;8.45;6.60;;;16.00;99.90;;;;;;5015213;28;20070;-74
2023/08/17 05:27:44;;;;;;;7.88;6.93;;;16.10;99.90;;;;;;5015576;28;20030;-73
2023/08/17 05:30:10;;;;;;;8.35;6.68;;;16.10;99.90;;;;;;5014216;28;20041;-73
2023/08/17 05:32:35;;;;;;;10.05;7.85;;;16.10;99.90;;;;;;5015018;28;20026;-73
2023/08/17 05:35:01;;;;;;;10.30;7.65;;;16.10;99.90;;;;;;5014422;28;20076;-73
2023/08/17 05:37:27;;;;;;;8.55;7.20;;;16.10;99.90;;;;;;5013667;28;20273;-73
2023/08/17 05:39:52;;;;;;;9.00;7.53;;;16.10;99.90;;;;;;5013498;28;20034;-73
2023/08/17 05:42:18;;;;;;;7.90;7.00;;;16.20;99.90;;;;;;5013862;28;20033;-73
2023/08/17 05:44:44;;;;;;;10.05;7.88;;;16.20;99.90;;;;;;5013950;28;20396;-73
2023/08/17 05:47:10;;;;;;;10.52;8.20;;;16.20;99.90;;;;;;5014779;28;20148;-72
2023/08/17 05:49:37;;;;;;;8.93;7.50;;;16.30;99.90;;;;;;5012822;28;20042;-73
2023/08/17 05:52:03;;;;;;;8.35;7.38;;;16.40;99.90;;;;;;5013223;28;20112;-73
2023/08/17 05:54:29;;;;;;;8.70;7.40;;;16.40;99.90;;;;;;5014405;28;20053;-72
2023/08/17 05:56:54;;;;;;;9.90;7.32;;;16.50;99.90;;;;;;5014524;28;20033;-72
2023/08/17 05:59:20;;;;;;;10.15;7.82;;;16.50;99.90;;;;;;5013518;28;20022;-72
2023/08/17 06:01:46;;;;;;;13.77;9.23;;;16.60;99.90;;;;;;5014962;28;20034;-72
2023/08/17 06:04:12;;;;;;;10.50;8.65;;;16.60;99.90;;;;;;5014217;28;20065;-73
2023/08/17 06:06:37;;;;;;;12.60;8.32;;;16.70;99.90;;;;;;5014218;28;20072;-72
2023/08/17 06:09:03;;;;;;;11.80;8.93;;;16.80;99.90;;;;;;5014019;28;20034;-72
2023/08/17 06:11:29;;;;;;;11.52;9.20;;;16.80;99.90;;;;;;5013683;28;20565;-73
2023/08/17 06:13:54;;;;;;;12.38;8.85;;;16.90;99.90;;;;;;5012401;28;20401;-73
2023/08/17 06:16:20;;;;;;;13.73;9.57;;;16.90;99.90;;;;;;5013621;28;20511;-73
2023/08/17 06:18:46;;;;;;;11.63;8.82;;;17.00;99.90;;;;;;5013403;28;20095;-73
2023/08/17 06:21:11;;;;;;;13.43;9.02;;;17.10;99.90;;;;;;5013506;28;20487;-73
2023/08/17 06:23:38;;;;;;;10.63;8.82;;;17.10;99.90;;;;;;5013738;28;20033;-73
2023/08/17 06:26:03;;;;;;;10.30;8.57;;;17.20;99.90;;;;;;5013840;28;20030;-73
2023/08/17 06:28:29;;;;;;;11.80;9.38;;;17.30;99.90;;;;;;5014011;28;20048;-73
2023/08/17 06:30:55;;;;;;;10.50;9.07;;;17.30;99.90;;;;;;5013781;28;20037;-73
2023/08/17 06:33:22;;;;;;;11.95;9.98;;;17.40;99.90;;;;;;5012913;28;20453;-73
2023/08/17 06:35:48;;;;;;;10.80;9.07;;;17.40;99.90;;;;;;5012419;28;20026;-73
2023/08/17 06:38:14;;;;;;;10.90;9.20;;;17.50;99.90;;;;;;5013346;28;20028;-73
2023/08/17 06:40:41;;;;;;;10.38;8.85;;;17.60;99.90;;;;;;5013603;28;20568;-73
2023/08/17 06:43:07;;;;;;;15.07;11.05;;;17.70;99.90;;;;;;5013662;28;20037;-72
2023/08/17 06:45:33;;;;;;;12.43;10.23;;;17.70;99.90;;;;;;5013661;28;20080;-73
2023/08/17 06:47:59;;;;;;;12.13;10.52;;;17.80;99.90;;;;;;5013890;28;20018;-72
2023/08/17 06:50:26;;;;;;;13.23;10.35;;;17.80;99.90;;;;;;5013541;28;20080;-73
2023/08/17 06:52:52;;;;;;;11.02;9.63;;;17.90;99.90;;;;;;5012286;28;20041;-73
2023/08/17 06:55:18;;;;;;;13.35;10.25;;;17.90;99.90;;;;;;5012317;28;20022;-73
2023/08/17 06:57:43;;;;;;;13.55;10.45;;;18.00;99.90;;;;;;5013498;28;20022;-73
2023/08/17 07:00:11;;;;;;;13.45;10.35;;;18.10;99.90;;;;;;5013452;28;20113;-73
2023/08/17 07:02:36;;;;;;;11.13;9.57;;;18.10;99.90;;;;;;5013479;28;20389;-73
2023/08/17 07:05:03;;;;;;;14.52;11.65;;;18.20;99.90;;;;;;5013779;28;20106;-73
2023/08/17 07:07:31;;;;;;;15.95;11.82;;;18.30;99.90;;;;;;5013430;28;20033;-73
2023/08/17 07:09:58;;;;;;;14.27;11.30;;;18.40;99.90;;;;;;5013327;28;20026;-73
2023/08/17 07:12:24;;;;;;;12.90;10.80;;;18.50;99.90;;;;;;5012178;28;20439;-73
2023/08/17 07:14:50;;;;;;;13.50;11.75;;;18.70;99.90;;;;;;5013631;28;20022;-74
2023/08/17 07:17:16;;;;;;;12.77;10.65;;;18.80;99.90;;;;;;5013491;28;20114;-74
2023/08/17 07:19:42;;;;;;;13.13;11.23;;;18.90;99.90;;;;;;5013222;28;20076;-74
2023/08/17 07:22:08;;;;;;;13.43;11.02;;;19.00;99.90;;;;;;5013545;28;20041;-74
2023/08/17 07:24:34;;;;;;;14.60;12.02;;;19.10;99.90;;;;;;5012057;28;20045;-74
2023/08/17 07:26:59;;;;;;;12.90;10.75;;;19.20;99.90;;;;;;5013236;28;20439;-73
2023/08/17 07:29:25;;;;;;;10.60;8.68;;;19.30;99.90;;;;;;5013172;28;20030;-73
2023/08/17 07:31:51;;;;;;;12.45;9.68;;;19.50;99.90;;;;;;5013329;28;20108;-73
2023/08/17 07:34:16;;;;;;;13.50;10.07;;;19.60;99.90;;;;;;5012101;28;20029;-74
2023/08/17 07:36:42;;;;;;;10.82;9.40;;;19.80;99.90;;;;;;5013423;28;20026;-73
2023/08/17 07:39:08;;;;;;;12.40;10.05;;;19.90;99.90;;;;;;5013037;28;20026;-73
2023/08/17 07:41:33;;;;;;;14.20;10.60;;;20.00;99.90;;;;;;5013352;28;20029;-73
2023/08/17 07:43:59;;;;;;;11.75;9.27;;;20.20;99.90;;;;;;5013031;28;20080;-73
2023/08/17 07:46:25;;;;;;;12.35;11.05;;;20.30;99.90;;;;;;5013320;28;20057;-73
2023/08/17 07:48:50;;;;;;;13.48;10.60;;;20.40;99.90;;;;;;5012984;28;20030;-73
2023/08/17 07:51:16;;;;;;;13.23;9.77;;;20.50;99.90;;;;;;5015927;28;20542;-73
2023/08/17 07:53:42;;;;;;;10.93;9.77;;;20.50;99.90;;;;;;5015316;28;20030;-73
2023/08/17 07:56:07;;;;;;;11.18;9.98;;;20.70;99.90;;;;;;5016484;28;20018;-73
2023/08/17 07:58:33;;;;;;;11.38;9.90;;;20.80;99.90;;;;;;5016519;28;20105;-73
2023/08/17 08:00:59;;;;;;;11.25;9.85;;;20.80;99.90;;;;;;5016445;28;20030;-74
2023/08/17 08:03:25;;;;;;;10.82;9.40;;;20.90;99.90;;;;;;5016375;28;20088;-73
2023/08/17 08:05:52;;;;;;;10.48;8.68;;;21.00;99.90;;;;;;5016383;28;20045;-73
2023/08/17 08:08:19;;;;;;;9.02;7.88;;;21.10;99.90;;;;;;5016618;28;20042;-73
2023/08/17 08:10:45;;;;;;;8.73;7.82;;;21.30;99.90;;;;;;5016185;28;20100;-73
2023/08/17 08:13:11;;;;;;;7.93;6.55;;;21.40;99.90;;;;;;5016144;28;20062;-73
2023/08/17 08:15:37;;;;;;;8.43;6.28;;;21.50;99.90;;;;;;5016222;28;20034;-73
2023/08/17 08:18:03;;;;;;;8.02;7.22;;;21.60;99.90;;;;;;5016004;28;20135;-73
2023/08/17 08:20:29;;;;;;;7.60;6.78;;;21.70;99.90;;;;;;5016027;28;20026;-73
2023/08/17 08:22:54;;;;;;;8.60;7.28;;;21.90;99.90;;;;;;5014823;28;20041;-74
2023/08/17 08:25:20;;;;;;;8.70;7.60;;;22.00;99.90;;;;;;5014698;28;20417;-73
2023/08/17 08:27:46;;;;;;;9.40;7.70;;;22.20;99.90;;;;;;5015906;28;20037;-73
2023/08/17 08:30:11;;;;;;;8.38;7.53;;;22.30;99.90;;;;;;5015931;28;20033;-73
2023/08/17 08:32:37;;;;;;;7.75;6.93;;;22.40;99.90;;;;;;5016038;28;20036;-73
2023/08/17 08:35:03;;;;;;;10.13;6.68;;;22.60;99.90;;;;;;5015811;28;20107;-73
2023/08/17 08:37:29;;;;;;;9.05;6.90;;;22.70;99.90;;;;;;5015812;28;20030;-73
2023/08/17 08:39:55;;;;;;;7.13;6.32;;;22.80;99.90;;;;;;5015733;28;20030;-73
2023/08/17 08:42:23;;;;;;;17.67;6.63;;;22.90;99.90;;;;;;5015730;28;20034;-74
2023/08/17 08:44:50;;;;;;;8.68;7.07;;;22.90;99.90;;;;;;5014367;28;20030;-74
2023/08/17 08:47:17;;;;;;;8.07;6.85;;;23.00;99.90;;;;;;5015606;28;20488;-74
2023/08/17 08:50:04;;;;;;;9.68;7.85;;;23.10;99.90;;;;;;5015535;28;20034;-74
2023/08/17 08:52:34;;;;;;;8.35;6.57;;;23.20;99.90;;;;;;5014304;28;20126;-73
2023/08/17 08:55:17;;;;;;;7.40;5.85;;;23.30;99.90;;;;;;5015486;28;20022;-74
2023/08/17 08:57:43;;;;;;;6.75;5.75;;;23.40;99.90;;;;;;5014188;28;20026;-73
2023/08/17 09:00:11;;;;;;;6.78;6.10;;;23.50;99.90;;;;;;5015321;28;20028;-73
2023/08/17 09:02:37;;;;;;;9.00;6.18;;;23.70;99.90;;;;;;5015030;28;20028;-73
2023/08/17 09:05:06;;;;;;;10.02;6.55;;;23.80;99.90;;;;;;5015284;28;20094;-73
2023/08/17 09:07:34;;;;;;;7.57;6.78;;;23.90;99.90;;;;;;5015212;28;20029;-73
2023/08/17 09:10:00;;;;;;;9.45;6.18;;;24.00;99.90;;;;;;5015095;28;20117;-73
2023/08/17 09:12:25;;;;;;;9.63;6.95;;;24.20;99.90;;;;;;5015351;28;20116;-73
2023/08/17 09:14:52;;;;;;;7.68;6.88;;;24.30;99.90;;;;;;5013936;28;20029;-73
2023/08/17 09:17:27;;;;;;;8.45;7.53;;;24.40;99.90;;;;;;5015057;28;20069;-73
2023/08/17 09:19:53;;;;;;;8.13;6.70;;;24.60;99.90;;;;;;5014876;28;20511;-74
2023/08/17 09:22:36;;;;;;;9.40;7.10;;;24.70;99.90;;;;;;5015421;28;20061;-73
2023/08/17 09:25:02;;;;;;;8.35;7.55;;;24.70;99.90;;;;;;5015667;28;20032;-73
2023/08/17 09:27:28;;;;;;;9.27;7.47;;;24.80;99.90;;;;;;5014839;28;20026;-73
2023/08/17 09:30:03;;;;;;;8.93;6.40;;;24.90;99.90;;;;;;5014805;28;20053;-74
2023/08/17 09:32:31;;;;;;;8.65;7.25;;;25.10;99.90;;;;;;5014716;28;20028;-74
2023/08/17 09:34:57;;;;;;;6.93;6.22;;;25.20;99.90;;;;;;5013494;28;20096;-74
2023/08/17 09:37:22;;;;;;;7.25;6.32;;;25.20;99.90;;;;;;5014735;28;20022;-74
2023/08/17 09:39:48;;;;;;;9.38;5.78;;;25.30;99.90;;;;;;5013717;28;20045;-73
2023/08/17 09:42:17;;;;;;;7.95;6.60;;;25.40;99.90;;;;;;5013300;28;20034;-74
2023/08/17 09:44:43;;;;;;;8.65;6.25;;;25.50;99.90;;;;;;5014554;28;20030;-74
2023/08/17 09:47:10;;;;;;;9.98;5.70;;;25.60;99.90;;;;;;5015067;28;20053;-74
2023/08/17 09:49:36;;;;;;;7.30;5.90;;;25.80;99.90;;;;;;5013247;28;20108;-74
2023/08/17 09:52:02;;;;;;;11.95;8.30;;;25.90;99.90;;;;;;5014378;28;20437;-73
2023/08/17 09:54:31;;;;;;;9.60;8.60;;;26.00;99.90;;;;;;5014446;28;20030;-74
2023/08/17 09:56:58;;;;;;;9.50;8.50;;;26.20;99.90;;;;;;5014277;28;20037;-73
2023/08/17 09:59:23;;;;;;;7.95;6.53;;;26.20;99.90;;;;;;5014289;28;20029;-73
2023/08/17 10:01:51;;;;;;;7.70;6.07;;;26.40;99.90;;;;;;5014255;28;20089;-73
2023/08/17 10:04:24;;;;;;;8.38;6.18;;;26.60;99.90;;;;;;5014455;28;20113;-73
2023/08/17 10:07:00;;;;;;;8.70;6.90;;;26.70;99.90;;;;;;5013772;28;20432;-74
2023/08/17 10:09:37;;;;;;;9.00;6.45;;;26.90;99.90;;;;;;5014590;28;20045;-74
2023/08/17 10:12:15;;;;;;;8.70;6.78;;;27.00;99.90;;;;;;5014912;28;20029;-74
2023/08/17 10:14:49;;;;;;;6.85;6.15;;;27.10;99.90;;;;;;5013182;28;20100;-73
2023/08/17 10:17:21;;;;;;;8.40;5.82;;;27.30;99.90;;;;;;5017098;28;20053;-73
2023/08/17 10:19:54;;;;;;;8.25;5.70;;;27.50;99.90;;;;;;5021977;28;20056;-73
2023/08/17 10:22:44;;;;;;;6.40;5.80;;;27.60;99.90;;;;;;5013675;28;20096;-73
2023/08/17 10:25:13;;;;;;;4.85;4.35;;;27.80;99.90;;;;;;5013678;28;20026;-73
2023/08/17 10:27:43;;;;;;;5.38;4.68;;;27.90;99.90;;;;;;5013693;28;20030;-73
2023/08/17 10:30:10;;;;;;;6.63;4.70;;;27.90;99.60;;;;;;5017143;28;20060;-73
2023/08/17 10:32:36;;;;;;;5.78;5.15;;;28.00;99.50;;;;;;5013493;28;20037;-73
2023/08/17 10:35:04;;;;;;;5.20;4.60;;;28.10;98.90;;;;;;5011898;28;20088;-72
2023/08/17 10:37:31;;;;;;;7.00;4.45;;;28.10;98.50;;;;;;5015284;28;20022;-73
2023/08/17 10:39:57;;;;;;;7.38;4.97;;;28.10;98.20;;;;;;5013392;28;20026;-73
2023/08/17 10:42:36;;;;;;;6.18;4.80;;;28.20;97.60;;;;;;5012202;28;20030;-73
2023/08/17 10:45:21;;;;;;;5.25;4.40;;;28.30;97.60;;;;;;5016403;28;20037;-73
2023/08/17 10:47:47;;;;;;;4.93;3.83;;;28.40;98.30;;;;;;5013257;28;20484;-73
2023/08/17 10:50:23;;;;;;;;;;;28.40;97.20;;;;;;5012548;28;20109;-73
2023/08/17 10:52:50;;;;;;;5.13;4.10;;;28.50;96.70;;;;;;5013358;28;19955;-73
2023/08/17 10:55:16;;;;;;;4.85;3.70;;;28.60;96.40;;;;;;5013265;28;20045;-73
2023/08/17 10:57:42;;;;;;;;;;;28.70;96.20;;;;;;5013525;28;20041;-73
2023/08/17 11:00:13;;;;;;;;;;;28.80;96.70;;;;;;5013339;28;19960;-73
2023/08/17 11:02:42;;;;;;;;;;;29.00;96.20;;;;;;5013792;28;19964;-73
2023/08/17 11:05:08;;;;;;;;;;;29.10;95.00;;;;;;5013703;28;19948;-73
2023/08/17 11:07:43;;;;;;;;;;;29.10;95.60;;;;;;5013625;28;19951;-74
2023/08/17 11:10:26;;;;;;;;;;;29.20;94.30;;;;;;5013657;28;19912;-73
2023/08/17 11:13:04;;;;;;;;;;;29.20;94.50;;;;;;5013102;28;19941;-73
2023/08/17 11:15:39;;;;;;;;;;;29.30;94.20;;;;;;5013362;28;19909;-73
2023/08/17 11:18:06;;;;;;;;;;;29.40;93.80;;;;;;5013371;28;20439;-73
2023/08/17 11:20:31;;;;;;;;;;;29.50;93.40;;;;;;5012286;28;20004;-72
2023/08/17 11:22:57;;;;;;;;;;;29.50;93.00;;;;;;5013800;28;20016;-73
2023/08/17 11:25:23;;;;;;;;;;;29.70;93.10;;;;;;5016580;28;19909;-73
2023/08/17 11:27:49;;;;;;;;;;;29.80;92.90;;;;;;5022481;28;20279;-73
2023/08/17 11:30:15;;;;;;;;;;;29.90;92.10;;;;;;5017359;28;19905;-73
2023/08/17 11:32:40;;;;;;;;;;;30.00;92.70;;;;;;5016057;28;19913;-74
2023/08/17 11:35:07;;;;;;;;;;;30.10;90.20;;;;;;5017147;28;19909;-73
2023/08/17 11:37:32;;;;;;;;;;;30.20;87.60;;;;;;5017254;28;20007;-73
2023/08/17 11:39:58;;;;;;;;;;;30.30;88.50;;;;;;5016978;28;19937;-73
2023/08/17 11:42:24;;;;;;;;;;;30.40;87.50;;;;;;5016595;28;19909;-73
2023/08/17 11:44:50;;;;;;;;;;;30.60;85.00;;;;;;5019887;28;20076;-73
2023/08/17 11:47:16;;;;;;;;;;;30.70;85.90;;;;;;5016902;28;20415;-73
2023/08/17 11:49:41;;;;;;;;;;;30.80;87.20;;;;;;5016790;28;19995;-73
2023/08/17 11:52:09;;;;;;;;;;;30.80;87.00;;;;;;5016203;28;19925;-72
2023/08/17 11:54:34;;;;;;;;;;;30.70;83.90;;;;;;5016708;28;20283;-73
2023/08/17 11:57:00;;;;;;;;;;;30.60;87.80;;;;;;5016768;28;19909;-73
2023/08/17 11:59:27;;;;;;;;;;;30.50;86.00;;;;;;5016664;28;20004;-73
2023/08/17 12:01:53;;;;;;;;;;;30.50;82.70;;;;;;5016715;28;19945;-73
2023/08/17 12:04:21;;;;;;;;;;;30.50;81.70;;;;;;5015696;28;19941;-73
2023/08/17 12:06:46;;;;;;;;;;;30.40;86.60;;;;;;5015144;28;19905;-73
2023/08/17 12:09:14;;;;;;;;;;;30.40;86.20;;;;;;5015571;28;19956;-72
2023/08/17 12:11:39;;;;;;;;;;;30.50;86.20;;;;;;5018266;28;20350;-73
2023/08/17 12:14:10;;;;;;;;;;;30.60;82.70;;;;;;5016166;28;19914;-73
2023/08/17 12:16:44;;;;;;;;;;;30.60;80.70;;;;;;5017831;28;19909;-73
2023/08/17 12:19:10;;;;;;;;;;;30.50;82.10;;;;;;5016001;28;19967;-73
2023/08/17 12:21:35;;;;;;;;;;;30.50;81.30;;;;;;5018801;28;19910;-73
2023/08/17 12:24:04;;;;;;;;;;;30.40;79.60;;;;;;5016072;28;19913;-73
2023/08/17 12:26:29;;;;;;;;;;;30.40;82.20;;;;;;5015438;28;20336;-73
2023/08/17 12:28:55;;;;;;;;;;;30.30;80.50;;;;;;5015902;28;19956;-73
2023/08/17 12:31:22;;;;;;;;;;;30.40;78.60;;;;;;5016681;28;19913;-73
2023/08/17 12:33:48;;;;;;;;;;;30.40;81.20;;;;;;5015849;28;19914;-73
2023/08/17 12:36:13;;;;;;;;;;;30.50;81.80;;;;;;5014388;28;20360;-73
2023/08/17 12:38:44;;;;;;;;;;;30.60;79.60;;;;;;5016112;28;19913;-73
2023/08/17 12:41:10;;;;;;;;;;;30.70;79.30;;;;;;5016187;28;19920;-73
2023/08/17 12:43:37;;;;;;;;;;;30.80;77.90;;;;;;5016187;28;19909;-73
2023/08/17 12:46:02;;;;;;;;;;;30.80;77.00;;;;;;5016123;28;19910;-73
2023/08/17 12:48:28;;;;;;;;;;;30.90;79.10;;;;;;5016072;28;20285;-73
2023/08/17 12:50:53;;;;;;;;;;;30.90;77.20;;;;;;5016338;28;19913;-74
2023/08/17 12:53:19;;;;;;;;;;;31.00;77.80;;;;;;5031254;28;19913;-73